sensor_id;sensor_type;location;lat;lon;timestamp;P1;durP1;ratioP1;P2;durP2;ratioP2
11771;SDS011;12556;55.748;13.194;2023-05-24T00:00:16;10.17;;;9.07;;
11771;SDS011;12556;55.748;13.194;2023-05-24T00:02:44;10.10;;;9.10;;
11771;SDS011;12556;55.748;13.194;2023-05-24T00:05:11;11.50;;;8.83;;
11771;SDS011;12556;55.748;13.194;2023-05-24T00:07:40;12.13;;;8.87;;
11771;SDS011;12556;55.748;13.194;2023-05-24T00:10:08;13.27;;;10.63;;
11771;SDS011;12556;55.748;13.194;2023-05-24T00:12:36;12.80;;;10.13;;
11771;SDS011;12556;55.748;13.194;2023-05-24T00:15:03;13.03;;;10.40;;
11771;SDS011;12556;55.748;13.194;2023-05-24T00:17:31;13.40;;;11.50;;
11771;SDS011;12556;55.748;13.194;2023-05-24T00:20:00;13.33;;;12.03;;
11771;SDS011;12556;55.748;13.194;2023-05-24T00:22:27;14.27;;;12.50;;
11771;SDS011;12556;55.748;13.194;2023-05-24T00:24:54;14.00;;;12.53;;
11771;SDS011;12556;55.748;13.194;2023-05-24T00:27:21;13.73;;;12.43;;
11771;SDS011;12556;55.748;13.194;2023-05-24T00:29:48;15.43;;;13.33;;
11771;SDS011;12556;55.748;13.194;2023-05-24T00:32:15;14.67;;;13.10;;
11771;SDS011;12556;55.748;13.194;2023-05-24T00:34:42;15.53;;;13.97;;
11771;SDS011;12556;55.748;13.194;2023-05-24T00:37:11;16.23;;;14.53;;
11771;SDS011;12556;55.748;13.194;2023-05-24T00:39:38;15.97;;;14.37;;
11771;SDS011;12556;55.748;13.194;2023-05-24T00:42:05;16.97;;;13.87;;
11771;SDS011;12556;55.748;13.194;2023-05-24T00:44:32;17.10;;;15.30;;
11771;SDS011;12556;55.748;13.194;2023-05-24T00:46:59;15.67;;;14.07;;
11771;SDS011;12556;55.748;13.194;2023-05-24T00:49:27;17.93;;;16.13;;
11771;SDS011;12556;55.748;13.194;2023-05-24T00:51:54;16.27;;;14.53;;
11771;SDS011;12556;55.748;13.194;2023-05-24T00:54:22;16.57;;;14.87;;
11771;SDS011;12556;55.748;13.194;2023-05-24T00:56:50;15.13;;;13.60;;
11771;SDS011;12556;55.748;13.194;2023-05-24T00:59:18;16.27;;;14.30;;
11771;SDS011;12556;55.748;13.194;2023-05-24T01:01:46;17.43;;;13.77;;
11771;SDS011;12556;55.748;13.194;2023-05-24T01:04:13;14.63;;;13.23;;
11771;SDS011;12556;55.748;13.194;2023-05-24T01:06:42;14.50;;;13.10;;
11771;SDS011;12556;55.748;13.194;2023-05-24T01:09:19;15.50;;;13.97;;
11771;SDS011;12556;55.748;13.194;2023-05-24T01:11:57;14.67;;;13.20;;
11771;SDS011;12556;55.748;13.194;2023-05-24T01:14:33;14.23;;;12.83;;
11771;SDS011;12556;55.748;13.194;2023-05-24T01:17:08;14.00;;;12.60;;
11771;SDS011;12556;55.748;13.194;2023-05-24T01:19:49;15.03;;;13.53;;
11771;SDS011;12556;55.748;13.194;2023-05-24T01:25:39;16.33;;;13.97;;
11771;SDS011;12556;55.748;13.194;2023-05-24T01:28:16;17.30;;;14.00;;
11771;SDS011;12556;55.748;13.194;2023-05-24T01:30:44;16.57;;;14.90;;
11771;SDS011;12556;55.748;13.194;2023-05-24T01:33:11;17.23;;;15.43;;
11771;SDS011;12556;55.748;13.194;2023-05-24T01:35:38;19.13;;;16.87;;
11771;SDS011;12556;55.748;13.194;2023-05-24T01:38:06;18.70;;;16.80;;
11771;SDS011;12556;55.748;13.194;2023-05-24T01:40:34;19.00;;;17.10;;
11771;SDS011;12556;55.748;13.194;2023-05-24T01:43:03;21.30;;;19.00;;
11771;SDS011;12556;55.748;13.194;2023-05-24T01:45:42;19.77;;;17.73;;
11771;SDS011;12556;55.748;13.194;2023-05-24T01:48:15;19.03;;;17.07;;
11771;SDS011;12556;55.748;13.194;2023-05-24T01:50:51;18.67;;;16.67;;
11771;SDS011;12556;55.748;13.194;2023-05-24T01:53:23;18.87;;;17.00;;
11771;SDS011;12556;55.748;13.194;2023-05-24T01:55:52;19.13;;;17.13;;
11771;SDS011;12556;55.748;13.194;2023-05-24T01:58:22;18.97;;;17.07;;
11771;SDS011;12556;55.748;13.194;2023-05-24T02:00:52;17.97;;;16.27;;
11771;SDS011;12556;55.748;13.194;2023-05-24T02:03:19;18.20;;;16.47;;
11771;SDS011;12556;55.748;13.194;2023-05-24T02:05:46;17.77;;;15.87;;
11771;SDS011;12556;55.748;13.194;2023-05-24T02:08:14;18.83;;;16.93;;
11771;SDS011;12556;55.748;13.194;2023-05-24T02:10:41;19.63;;;17.73;;
11771;SDS011;12556;55.748;13.194;2023-05-24T02:13:08;20.83;;;18.73;;
11771;SDS011;12556;55.748;13.194;2023-05-24T02:15:35;21.20;;;17.30;;
11771;SDS011;12556;55.748;13.194;2023-05-24T02:18:03;18.30;;;16.33;;
11771;SDS011;12556;55.748;13.194;2023-05-24T02:20:32;19.07;;;16.87;;
11771;SDS011;12556;55.748;13.194;2023-05-24T02:23:01;19.87;;;16.47;;
11771;SDS011;12556;55.748;13.194;2023-05-24T02:25:28;19.00;;;17.17;;
11771;SDS011;12556;55.748;13.194;2023-05-24T02:27:55;20.33;;;18.23;;
11771;SDS011;12556;55.748;13.194;2023-05-24T02:30:23;20.77;;;18.67;;
11771;SDS011;12556;55.748;13.194;2023-05-24T02:32:50;20.20;;;18.10;;
11771;SDS011;12556;55.748;13.194;2023-05-24T02:35:18;20.63;;;18.47;;
11771;SDS011;12556;55.748;13.194;2023-05-24T02:37:45;20.57;;;18.40;;
11771;SDS011;12556;55.748;13.194;2023-05-24T02:40:12;20.43;;;17.53;;
11771;SDS011;12556;55.748;13.194;2023-05-24T02:42:39;19.63;;;17.50;;
11771;SDS011;12556;55.748;13.194;2023-05-24T02:45:07;22.87;;;17.00;;
11771;SDS011;12556;55.748;13.194;2023-05-24T02:47:34;20.43;;;17.03;;
11771;SDS011;12556;55.748;13.194;2023-05-24T02:50:01;18.23;;;15.97;;
11771;SDS011;12556;55.748;13.194;2023-05-24T02:52:30;21.10;;;15.57;;
11771;SDS011;12556;55.748;13.194;2023-05-24T02:54:57;18.77;;;15.63;;
11771;SDS011;12556;55.748;13.194;2023-05-24T02:57:24;15.70;;;14.10;;
11771;SDS011;12556;55.748;13.194;2023-05-24T02:59:52;15.57;;;14.00;;
11771;SDS011;12556;55.748;13.194;2023-05-24T03:02:19;16.57;;;12.87;;
11771;SDS011;12556;55.748;13.194;2023-05-24T03:04:47;17.07;;;12.80;;
11771;SDS011;12556;55.748;13.194;2023-05-24T03:07:14;15.57;;;12.90;;
11771;SDS011;12556;55.748;13.194;2023-05-24T03:09:42;11.67;;;10.53;;
11771;SDS011;12556;55.748;13.194;2023-05-24T03:12:09;12.30;;;11.03;;
11771;SDS011;12556;55.748;13.194;2023-05-24T03:14:38;11.80;;;10.53;;
11771;SDS011;12556;55.748;13.194;2023-05-24T03:17:05;11.80;;;9.37;;
11771;SDS011;12556;55.748;13.194;2023-05-24T03:19:31;10.30;;;9.13;;
11771;SDS011;12556;55.748;13.194;2023-05-24T03:21:59;12.87;;;9.07;;
11771;SDS011;12556;55.748;13.194;2023-05-24T03:24:27;9.03;;;8.13;;
11771;SDS011;12556;55.748;13.194;2023-05-24T03:26:55;9.10;;;7.80;;
11771;SDS011;12556;55.748;13.194;2023-05-24T03:29:22;8.70;;;7.70;;
11771;SDS011;12556;55.748;13.194;2023-05-24T03:31:50;8.63;;;7.83;;
11771;SDS011;12556;55.748;13.194;2023-05-24T03:34:17;7.87;;;7.10;;
11771;SDS011;12556;55.748;13.194;2023-05-24T03:36:44;9.03;;;8.13;;
11771;SDS011;12556;55.748;13.194;2023-05-24T03:39:11;10.33;;;7.23;;
11771;SDS011;12556;55.748;13.194;2023-05-24T03:41:37;8.97;;;7.07;;
11771;SDS011;12556;55.748;13.194;2023-05-24T03:44:06;8.30;;;7.33;;
11771;SDS011;12556;55.748;13.194;2023-05-24T03:46:34;10.50;;;7.03;;
11771;SDS011;12556;55.748;13.194;2023-05-24T03:49:01;7.93;;;6.80;;
11771;SDS011;12556;55.748;13.194;2023-05-24T03:51:28;11.60;;;7.47;;
11771;SDS011;12556;55.748;13.194;2023-05-24T03:53:56;8.03;;;6.40;;
11771;SDS011;12556;55.748;13.194;2023-05-24T03:56:23;9.23;;;7.27;;
11771;SDS011;12556;55.748;13.194;2023-05-24T03:58:50;8.47;;;7.57;;
11771;SDS011;12556;55.748;13.194;2023-05-24T04:01:19;7.53;;;6.83;;
11771;SDS011;12556;55.748;13.194;2023-05-24T04:03:46;10.77;;;6.53;;
11771;SDS011;12556;55.748;13.194;2023-05-24T04:06:13;9.07;;;7.00;;
11771;SDS011;12556;55.748;13.194;2023-05-24T04:08:40;8.13;;;7.33;;
11771;SDS011;12556;55.748;13.194;2023-05-24T04:11:07;7.17;;;6.47;;
11771;SDS011;12556;55.748;13.194;2023-05-24T04:13:34;7.23;;;6.40;;
11771;SDS011;12556;55.748;13.194;2023-05-24T04:16:01;7.83;;;6.90;;
11771;SDS011;12556;55.748;13.194;2023-05-24T04:18:29;7.47;;;5.90;;
11771;SDS011;12556;55.748;13.194;2023-05-24T04:20:56;10.03;;;6.80;;
11771;SDS011;12556;55.748;13.194;2023-05-24T04:23:23;7.40;;;6.53;;
11771;SDS011;12556;55.748;13.194;2023-05-24T04:25:50;8.90;;;6.23;;
11771;SDS011;12556;55.748;13.194;2023-05-24T04:28:17;9.07;;;6.87;;
11771;SDS011;12556;55.748;13.194;2023-05-24T04:30:46;7.63;;;6.77;;
11771;SDS011;12556;55.748;13.194;2023-05-24T04:33:13;10.73;;;6.53;;
11771;SDS011;12556;55.748;13.194;2023-05-24T04:35:42;7.60;;;6.90;;
11771;SDS011;12556;55.748;13.194;2023-05-24T04:38:09;8.30;;;6.60;;
11771;SDS011;12556;55.748;13.194;2023-05-24T04:40:37;10.80;;;6.83;;
11771;SDS011;12556;55.748;13.194;2023-05-24T04:43:04;7.20;;;6.03;;
11771;SDS011;12556;55.748;13.194;2023-05-24T04:45:31;7.97;;;6.67;;
11771;SDS011;12556;55.748;13.194;2023-05-24T04:47:58;7.87;;;6.63;;
11771;SDS011;12556;55.748;13.194;2023-05-24T04:50:25;7.37;;;6.50;;
11771;SDS011;12556;55.748;13.194;2023-05-24T04:52:54;7.20;;;6.60;;
11771;SDS011;12556;55.748;13.194;2023-05-24T04:55:21;8.27;;;6.57;;
11771;SDS011;12556;55.748;13.194;2023-05-24T04:57:48;7.83;;;7.03;;
11771;SDS011;12556;55.748;13.194;2023-05-24T05:00:15;7.20;;;6.60;;
11771;SDS011;12556;55.748;13.194;2023-05-24T05:02:43;9.87;;;6.47;;
11771;SDS011;12556;55.748;13.194;2023-05-24T05:05:10;7.57;;;6.87;;
11771;SDS011;12556;55.748;13.194;2023-05-24T05:07:37;7.77;;;6.57;;
11771;SDS011;12556;55.748;13.194;2023-05-24T05:10:07;7.17;;;6.47;;
11771;SDS011;12556;55.748;13.194;2023-05-24T05:12:34;8.30;;;6.33;;
11771;SDS011;12556;55.748;13.194;2023-05-24T05:15:01;6.97;;;6.23;;
11771;SDS011;12556;55.748;13.194;2023-05-24T05:17:28;8.43;;;6.67;;
11771;SDS011;12556;55.748;13.194;2023-05-24T05:19:55;8.30;;;7.57;;
11771;SDS011;12556;55.748;13.194;2023-05-24T05:22:22;11.07;;;7.63;;
11771;SDS011;12556;55.748;13.194;2023-05-24T05:24:50;9.23;;;7.83;;
11771;SDS011;12556;55.748;13.194;2023-05-24T05:27:19;8.67;;;7.73;;
11771;SDS011;12556;55.748;13.194;2023-05-24T05:29:46;9.47;;;7.63;;
11771;SDS011;12556;55.748;13.194;2023-05-24T05:32:13;8.03;;;7.20;;
11771;SDS011;12556;55.748;13.194;2023-05-24T05:34:40;9.47;;;7.70;;
11771;SDS011;12556;55.748;13.194;2023-05-24T05:37:07;8.63;;;7.80;;
11771;SDS011;12556;55.748;13.194;2023-05-24T05:39:34;8.70;;;7.67;;
11771;SDS011;12556;55.748;13.194;2023-05-24T05:42:01;8.10;;;7.30;;
11771;SDS011;12556;55.748;13.194;2023-05-24T05:44:29;9.90;;;8.10;;
11771;SDS011;12556;55.748;13.194;2023-05-24T05:46:56;10.23;;;7.27;;
11771;SDS011;12556;55.748;13.194;2023-05-24T05:49:23;8.50;;;7.57;;
11771;SDS011;12556;55.748;13.194;2023-05-24T05:51:50;8.07;;;7.27;;
11771;SDS011;12556;55.748;13.194;2023-05-24T05:54:18;8.63;;;6.93;;
11771;SDS011;12556;55.748;13.194;2023-05-24T05:56:46;10.27;;;7.30;;
11771;SDS011;12556;55.748;13.194;2023-05-24T05:59:13;9.40;;;7.73;;
11771;SDS011;12556;55.748;13.194;2023-05-24T06:01:42;7.37;;;6.70;;
11771;SDS011;12556;55.748;13.194;2023-05-24T06:04:11;8.23;;;7.43;;
11771;SDS011;12556;55.748;13.194;2023-05-24T06:06:38;7.47;;;6.77;;
11771;SDS011;12556;55.748;13.194;2023-05-24T06:09:05;8.27;;;7.47;;
11771;SDS011;12556;55.748;13.194;2023-05-24T06:11:32;7.13;;;6.43;;
11771;SDS011;12556;55.748;13.194;2023-05-24T06:13:59;9.53;;;7.43;;
11771;SDS011;12556;55.748;13.194;2023-05-24T06:16:26;7.50;;;6.80;;
11771;SDS011;12556;55.748;13.194;2023-05-24T06:18:55;7.57;;;6.70;;
11771;SDS011;12556;55.748;13.194;2023-05-24T06:21:22;7.60;;;6.90;;
11771;SDS011;12556;55.748;13.194;2023-05-24T06:23:49;7.03;;;6.33;;
11771;SDS011;12556;55.748;13.194;2023-05-24T06:26:16;7.13;;;6.53;;
11771;SDS011;12556;55.748;13.194;2023-05-24T06:28:45;9.23;;;6.57;;
11771;SDS011;12556;55.748;13.194;2023-05-24T06:31:12;7.60;;;6.80;;
11771;SDS011;12556;55.748;13.194;2023-05-24T06:33:39;7.23;;;6.53;;
11771;SDS011;12556;55.748;13.194;2023-05-24T06:36:07;7.17;;;6.47;;
11771;SDS011;12556;55.748;13.194;2023-05-24T06:38:34;7.30;;;6.60;;
11771;SDS011;12556;55.748;13.194;2023-05-24T06:41:02;7.10;;;6.40;;
11771;SDS011;12556;55.748;13.194;2023-05-24T06:43:29;7.13;;;6.40;;
11771;SDS011;12556;55.748;13.194;2023-05-24T06:45:57;7.37;;;6.50;;
11771;SDS011;12556;55.748;13.194;2023-05-24T06:48:24;6.97;;;6.37;;
11771;SDS011;12556;55.748;13.194;2023-05-24T06:50:51;6.27;;;5.70;;
11771;SDS011;12556;55.748;13.194;2023-05-24T06:53:19;7.10;;;6.40;;
11771;SDS011;12556;55.748;13.194;2023-05-24T06:55:46;6.80;;;6.20;;
11771;SDS011;12556;55.748;13.194;2023-05-24T06:58:13;6.60;;;6.00;;
11771;SDS011;12556;55.748;13.194;2023-05-24T07:00:41;6.70;;;5.97;;
11771;SDS011;12556;55.748;13.194;2023-05-24T07:03:10;7.43;;;6.33;;
11771;SDS011;12556;55.748;13.194;2023-05-24T07:05:38;7.17;;;5.97;;
11771;SDS011;12556;55.748;13.194;2023-05-24T07:08:05;6.40;;;5.80;;
11771;SDS011;12556;55.748;13.194;2023-05-24T07:10:34;7.13;;;6.23;;
11771;SDS011;12556;55.748;13.194;2023-05-24T07:13:01;6.22;;;5.72;;
11771;SDS011;12556;55.748;13.194;2023-05-24T07:15:28;8.07;;;5.90;;
11771;SDS011;12556;55.748;13.194;2023-05-24T07:17:55;7.45;;;6.22;;
11771;SDS011;12556;55.748;13.194;2023-05-24T07:20:22;6.00;;;5.50;;
11771;SDS011;12556;55.748;13.194;2023-05-24T07:22:49;6.55;;;5.95;;
11771;SDS011;12556;55.748;13.194;2023-05-24T07:25:17;7.22;;;6.25;;
11771;SDS011;12556;55.748;13.194;2023-05-24T07:27:45;7.00;;;6.25;;
11771;SDS011;12556;55.748;13.194;2023-05-24T07:30:12;6.88;;;6.22;;
11771;SDS011;12556;55.748;13.194;2023-05-24T07:32:40;9.38;;;6.45;;
11771;SDS011;12556;55.748;13.194;2023-05-24T07:35:10;7.78;;;5.65;;
11771;SDS011;12556;55.748;13.194;2023-05-24T07:37:38;6.70;;;6.10;;
11771;SDS011;12556;55.748;13.194;2023-05-24T07:40:06;6.50;;;5.93;;
11771;SDS011;12556;55.748;13.194;2023-05-24T07:42:35;6.43;;;5.82;;
11771;SDS011;12556;55.748;13.194;2023-05-24T07:45:04;7.57;;;5.93;;
11771;SDS011;12556;55.748;13.194;2023-05-24T07:47:32;6.53;;;5.93;;
11771;SDS011;12556;55.748;13.194;2023-05-24T07:50:00;8.93;;;6.20;;
11771;SDS011;12556;55.748;13.194;2023-05-24T07:52:27;10.13;;;6.78;;
11771;SDS011;12556;55.748;13.194;2023-05-24T07:54:55;8.18;;;6.82;;
11771;SDS011;12556;55.748;13.194;2023-05-24T07:57:22;10.60;;;7.50;;
11771;SDS011;12556;55.748;13.194;2023-05-24T07:59:49;7.93;;;7.28;;
11771;SDS011;12556;55.748;13.194;2023-05-24T08:02:18;9.15;;;7.60;;
11771;SDS011;12556;55.748;13.194;2023-05-24T08:04:45;8.57;;;7.78;;
11771;SDS011;12556;55.748;13.194;2023-05-24T08:07:12;8.80;;;7.90;;
11771;SDS011;12556;55.748;13.194;2023-05-24T08:09:40;9.40;;;8.10;;
11771;SDS011;12556;55.748;13.194;2023-05-24T08:12:07;8.30;;;7.50;;
11771;SDS011;12556;55.748;13.194;2023-05-24T08:14:34;8.52;;;7.80;;
11771;SDS011;12556;55.748;13.194;2023-05-24T08:17:01;8.88;;;7.97;;
11771;SDS011;12556;55.748;13.194;2023-05-24T08:19:30;9.27;;;8.20;;
11771;SDS011;12556;55.748;13.194;2023-05-24T08:22:00;8.63;;;7.75;;
11771;SDS011;12556;55.748;13.194;2023-05-24T08:24:29;9.63;;;8.65;;
11771;SDS011;12556;55.748;13.194;2023-05-24T08:26:56;8.55;;;7.75;;
11771;SDS011;12556;55.748;13.194;2023-05-24T08:29:23;8.88;;;7.68;;
11771;SDS011;12556;55.748;13.194;2023-05-24T08:31:50;7.82;;;7.13;;
11771;SDS011;12556;55.748;13.194;2023-05-24T08:34:17;8.00;;;7.20;;
11771;SDS011;12556;55.748;13.194;2023-05-24T08:36:46;8.88;;;8.02;;
11771;SDS011;12556;55.748;13.194;2023-05-24T08:39:13;8.45;;;7.65;;
11771;SDS011;12556;55.748;13.194;2023-05-24T08:41:40;8.77;;;7.80;;
11771;SDS011;12556;55.748;13.194;2023-05-24T08:44:07;10.13;;;8.70;;
11771;SDS011;12556;55.748;13.194;2023-05-24T08:46:35;9.27;;;8.38;;
11771;SDS011;12556;55.748;13.194;2023-05-24T08:49:03;7.72;;;7.13;;
11771;SDS011;12556;55.748;13.194;2023-05-24T08:51:31;8.80;;;8.10;;
11771;SDS011;12556;55.748;13.194;2023-05-24T08:54:00;9.50;;;8.55;;
11771;SDS011;12556;55.748;13.194;2023-05-24T08:56:28;10.90;;;9.90;;
11771;SDS011;12556;55.748;13.194;2023-05-24T08:58:56;9.98;;;9.05;;
11771;SDS011;12556;55.748;13.194;2023-05-24T09:01:23;9.50;;;8.60;;
11771;SDS011;12556;55.748;13.194;2023-05-24T09:03:50;9.52;;;8.73;;
11771;SDS011;12556;55.748;13.194;2023-05-24T09:06:19;9.27;;;8.45;;
11771;SDS011;12556;55.748;13.194;2023-05-24T09:08:47;9.35;;;8.48;;
11771;SDS011;12556;55.748;13.194;2023-05-24T09:11:18;9.45;;;8.60;;
11771;SDS011;12556;55.748;13.194;2023-05-24T09:13:47;9.48;;;8.77;;
11771;SDS011;12556;55.748;13.194;2023-05-24T09:16:14;9.70;;;8.77;;
11771;SDS011;12556;55.748;13.194;2023-05-24T09:18:41;9.93;;;8.80;;
11771;SDS011;12556;55.748;13.194;2023-05-24T09:21:09;11.07;;;10.05;;
11771;SDS011;12556;55.748;13.194;2023-05-24T09:23:36;10.02;;;9.20;;
11771;SDS011;12556;55.748;13.194;2023-05-24T09:26:07;9.45;;;8.65;;
11771;SDS011;12556;55.748;13.194;2023-05-24T09:28:37;10.00;;;9.25;;
11771;SDS011;12556;55.748;13.194;2023-05-24T09:31:05;10.25;;;9.35;;
11771;SDS011;12556;55.748;13.194;2023-05-24T09:33:33;9.82;;;8.93;;
11771;SDS011;12556;55.748;13.194;2023-05-24T09:36:01;11.27;;;9.75;;
11771;SDS011;12556;55.748;13.194;2023-05-24T09:38:29;9.93;;;8.93;;
11771;SDS011;12556;55.748;13.194;2023-05-24T09:40:57;10.45;;;9.57;;
11771;SDS011;12556;55.748;13.194;2023-05-24T09:43:28;10.13;;;9.32;;
11771;SDS011;12556;55.748;13.194;2023-05-24T09:45:58;10.38;;;9.57;;
11771;SDS011;12556;55.748;13.194;2023-05-24T09:48:27;9.88;;;9.07;;
11771;SDS011;12556;55.748;13.194;2023-05-24T09:51:04;9.95;;;9.02;;
11771;SDS011;12556;55.748;13.194;2023-05-24T09:53:34;9.80;;;9.00;;
11771;SDS011;12556;55.748;13.194;2023-05-24T09:56:02;10.00;;;9.10;;
11771;SDS011;12556;55.748;13.194;2023-05-24T09:58:31;11.35;;;10.45;;
11771;SDS011;12556;55.748;13.194;2023-05-24T10:01:03;12.48;;;11.68;;
11771;SDS011;12556;55.748;13.194;2023-05-24T10:03:32;13.57;;;12.75;;
11771;SDS011;12556;55.748;13.194;2023-05-24T10:06:01;15.48;;;14.52;;
11771;SDS011;12556;55.748;13.194;2023-05-24T10:08:31;16.63;;;15.45;;
11771;SDS011;12556;55.748;13.194;2023-05-24T10:11:00;18.83;;;17.63;;
11771;SDS011;12556;55.748;13.194;2023-05-24T10:13:28;16.92;;;15.82;;
11771;SDS011;12556;55.748;13.194;2023-05-24T10:15:57;18.90;;;17.65;;
11771;SDS011;12556;55.748;13.194;2023-05-24T10:18:26;20.17;;;19.15;;
11771;SDS011;12556;55.748;13.194;2023-05-24T10:20:53;23.77;;;22.55;;
11771;SDS011;12556;55.748;13.194;2023-05-24T10:23:22;29.02;;;27.60;;
11771;SDS011;12556;55.748;13.194;2023-05-24T10:25:50;26.70;;;25.30;;
11771;SDS011;12556;55.748;13.194;2023-05-24T10:28:21;34.00;;;32.40;;
11771;SDS011;12556;55.748;13.194;2023-05-24T10:30:53;36.78;;;34.88;;
11771;SDS011;12556;55.748;13.194;2023-05-24T10:33:28;43.55;;;41.55;;
11771;SDS011;12556;55.748;13.194;2023-05-24T10:35:57;46.13;;;44.08;;
11771;SDS011;12556;55.748;13.194;2023-05-24T10:38:25;45.95;;;43.85;;
11771;SDS011;12556;55.748;13.194;2023-05-24T10:40:52;64.80;;;62.15;;
11771;SDS011;12556;55.748;13.194;2023-05-24T10:43:20;92.95;;;88.90;;
11771;SDS011;12556;55.748;13.194;2023-05-24T10:45:47;72.43;;;69.25;;
11771;SDS011;12556;55.748;13.194;2023-05-24T10:48:32;92.60;;;88.82;;
11771;SDS011;12556;55.748;13.194;2023-05-24T10:54:12;79.93;;;76.47;;
11771;SDS011;12556;55.748;13.194;2023-05-24T10:56:41;82.68;;;79.22;;
11771;SDS011;12556;55.748;13.194;2023-05-24T10:59:21;125.55;;;120.43;;
11771;SDS011;12556;55.748;13.194;2023-05-24T11:01:55;103.50;;;99.25;;
11771;SDS011;12556;55.748;13.194;2023-05-24T11:04:26;127.43;;;122.25;;
11771;SDS011;12556;55.748;13.194;2023-05-24T11:07:00;118.10;;;113.40;;
11771;SDS011;12556;55.748;13.194;2023-05-24T11:09:29;119.28;;;114.38;;
11771;SDS011;12556;55.748;13.194;2023-05-24T11:11:59;87.90;;;84.32;;
11771;SDS011;12556;55.748;13.194;2023-05-24T11:14:28;118.57;;;113.78;;
11771;SDS011;12556;55.748;13.194;2023-05-24T11:16:56;115.28;;;110.72;;
11771;SDS011;12556;55.748;13.194;2023-05-24T11:19:31;102.93;;;98.65;;
11771;SDS011;12556;55.748;13.194;2023-05-24T11:22:02;96.22;;;92.32;;
11771;SDS011;12556;55.748;13.194;2023-05-24T11:24:32;97.15;;;93.30;;
11771;SDS011;12556;55.748;13.194;2023-05-24T11:27:00;109.32;;;104.78;;
11771;SDS011;12556;55.748;13.194;2023-05-24T11:29:28;111.13;;;106.63;;
11771;SDS011;12556;55.748;13.194;2023-05-24T11:31:56;153.75;;;147.63;;
11771;SDS011;12556;55.748;13.194;2023-05-24T11:34:28;153.60;;;147.38;;
11771;SDS011;12556;55.748;13.194;2023-05-24T11:36:57;157.50;;;151.23;;
11771;SDS011;12556;55.748;13.194;2023-05-24T11:39:29;151.07;;;144.65;;
11771;SDS011;12556;55.748;13.194;2023-05-24T11:41:57;173.48;;;166.40;;
11771;SDS011;12556;55.748;13.194;2023-05-24T11:44:26;183.20;;;175.80;;
11771;SDS011;12556;55.748;13.194;2023-05-24T11:46:58;216.18;;;207.10;;
11771;SDS011;12556;55.748;13.194;2023-05-24T11:49:25;244.43;;;234.05;;
11771;SDS011;12556;55.748;13.194;2023-05-24T11:51:53;220.13;;;211.00;;
11771;SDS011;12556;55.748;13.194;2023-05-24T11:54:23;233.38;;;223.73;;
11771;SDS011;12556;55.748;13.194;2023-05-24T11:56:50;236.93;;;227.40;;
11771;SDS011;12556;55.748;13.194;2023-05-24T11:59:21;279.85;;;267.73;;
11771;SDS011;12556;55.748;13.194;2023-05-24T12:01:49;232.13;;;222.27;;
11771;SDS011;12556;55.748;13.194;2023-05-24T12:04:21;247.60;;;236.93;;
11771;SDS011;12556;55.748;13.194;2023-05-24T12:06:48;244.00;;;233.88;;
11771;SDS011;12556;55.748;13.194;2023-05-24T12:09:15;217.70;;;208.77;;
11771;SDS011;12556;55.748;13.194;2023-05-24T12:11:45;219.15;;;209.95;;
11771;SDS011;12556;55.748;13.194;2023-05-24T12:14:14;224.30;;;215.13;;
11771;SDS011;12556;55.748;13.194;2023-05-24T12:16:43;175.40;;;168.32;;
11771;SDS011;12556;55.748;13.194;2023-05-24T12:19:17;180.57;;;173.18;;
11771;SDS011;12556;55.748;13.194;2023-05-24T12:21:45;168.07;;;161.30;;
11771;SDS011;12556;55.748;13.194;2023-05-24T12:24:13;152.55;;;146.32;;
11771;SDS011;12556;55.748;13.194;2023-05-24T12:26:45;121.82;;;116.93;;
11771;SDS011;12556;55.748;13.194;2023-05-24T12:29:13;160.55;;;154.13;;
11771;SDS011;12556;55.748;13.194;2023-05-24T12:31:42;134.93;;;129.55;;
11771;SDS011;12556;55.748;13.194;2023-05-24T12:34:12;152.80;;;146.52;;
11771;SDS011;12556;55.748;13.194;2023-05-24T12:36:41;141.25;;;135.63;;
11771;SDS011;12556;55.748;13.194;2023-05-24T12:39:15;129.15;;;123.63;;
11771;SDS011;12556;55.748;13.194;2023-05-24T12:41:48;104.82;;;100.60;;
11771;SDS011;12556;55.748;13.194;2023-05-24T12:44:16;138.80;;;133.07;;
11771;SDS011;12556;55.748;13.194;2023-05-24T12:46:46;123.43;;;118.55;;
11771;SDS011;12556;55.748;13.194;2023-05-24T12:49:15;117.13;;;112.32;;
11771;SDS011;12556;55.748;13.194;2023-05-24T12:51:42;123.93;;;118.72;;
11771;SDS011;12556;55.748;13.194;2023-05-24T12:54:09;141.05;;;135.18;;
11771;SDS011;12556;55.748;13.194;2023-05-24T12:56:36;143.52;;;137.73;;
11771;SDS011;12556;55.748;13.194;2023-05-24T12:59:04;154.95;;;148.60;;
11771;SDS011;12556;55.748;13.194;2023-05-24T13:01:31;124.10;;;118.93;;
11771;SDS011;12556;55.748;13.194;2023-05-24T13:03:58;168.85;;;162.15;;
11771;SDS011;12556;55.748;13.194;2023-05-24T13:06:25;191.30;;;183.75;;
11771;SDS011;12556;55.748;13.194;2023-05-24T13:08:52;156.48;;;150.00;;
11771;SDS011;12556;55.748;13.194;2023-05-24T13:11:19;199.13;;;190.82;;
11771;SDS011;12556;55.748;13.194;2023-05-24T13:13:47;196.77;;;188.75;;
11771;SDS011;12556;55.748;13.194;2023-05-24T13:16:15;219.95;;;210.95;;
11771;SDS011;12556;55.748;13.194;2023-05-24T13:18:42;202.93;;;194.65;;
11771;SDS011;12556;55.748;13.194;2023-05-24T13:21:10;218.45;;;209.65;;
11771;SDS011;12556;55.748;13.194;2023-05-24T13:23:37;249.80;;;238.90;;
11771;SDS011;12556;55.748;13.194;2023-05-24T13:26:04;263.63;;;252.55;;
11771;SDS011;12556;55.748;13.194;2023-05-24T13:28:33;228.52;;;218.88;;
11771;SDS011;12556;55.748;13.194;2023-05-24T13:31:00;176.00;;;169.07;;
11771;SDS011;12556;55.748;13.194;2023-05-24T13:33:29;208.20;;;199.68;;
11771;SDS011;12556;55.748;13.194;2023-05-24T13:35:56;195.90;;;187.98;;
11771;SDS011;12556;55.748;13.194;2023-05-24T13:38:24;178.88;;;171.45;;
11771;SDS011;12556;55.748;13.194;2023-05-24T13:40:51;183.95;;;176.30;;
11771;SDS011;12556;55.748;13.194;2023-05-24T13:43:19;177.80;;;170.57;;
11771;SDS011;12556;55.748;13.194;2023-05-24T13:45:46;169.63;;;162.63;;
11771;SDS011;12556;55.748;13.194;2023-05-24T13:48:13;178.75;;;170.90;;
11771;SDS011;12556;55.748;13.194;2023-05-24T13:50:42;156.82;;;150.40;;
11771;SDS011;12556;55.748;13.194;2023-05-24T13:53:09;173.00;;;165.68;;
11771;SDS011;12556;55.748;13.194;2023-05-24T13:55:36;155.05;;;148.73;;
11771;SDS011;12556;55.748;13.194;2023-05-24T13:58:03;148.20;;;142.32;;
11771;SDS011;12556;55.748;13.194;2023-05-24T14:00:30;134.38;;;128.45;;
11771;SDS011;12556;55.748;13.194;2023-05-24T14:02:59;141.10;;;135.35;;
11771;SDS011;12556;55.748;13.194;2023-05-24T14:05:27;150.70;;;144.60;;
11771;SDS011;12556;55.748;13.194;2023-05-24T14:07:57;106.55;;;102.38;;
11771;SDS011;12556;55.748;13.194;2023-05-24T14:10:30;138.10;;;132.38;;
11771;SDS011;12556;55.748;13.194;2023-05-24T14:12:57;131.63;;;126.18;;
11771;SDS011;12556;55.748;13.194;2023-05-24T14:15:24;152.15;;;145.95;;
11771;SDS011;12556;55.748;13.194;2023-05-24T14:17:51;159.43;;;152.68;;
11771;SDS011;12556;55.748;13.194;2023-05-24T14:20:18;165.55;;;158.90;;
11771;SDS011;12556;55.748;13.194;2023-05-24T14:22:45;168.75;;;161.85;;
11771;SDS011;12556;55.748;13.194;2023-05-24T14:25:14;181.65;;;174.57;;